Flight Track Log - Related Links

Times and Time Zones

All times are in EDT time to prevent confusion due to time zone crossing. See the N88JA flight status page for this flight to view local times or setup timezone preferences in your user account.

Time Position Orientation Groundspeed Altitude Reporting Facility
EDT Latitude Longitude Course Direction KTS MPH feet Rate Location/Type
Thu 11:25:49 AM 40.7681 -82.5036 190° South 67 77 4,400  Level Indianapolis Center
Thu 11:26:51 AM 40.7517 -82.5153 208° Southwest 67 77 5,000 532 Climbing Indianapolis Center
Thu 11:27:53 AM 40.7372 -82.5383 230° Southwest 76 87 5,500 484 Climbing Indianapolis Center
Thu 11:28:00 AM 40.6720 -82.5256 189° South  Level FlightAware Approximate
Thu 11:28:55 AM 40.7214 -82.5614 228° Southwest 83 96 6,000  Level Indianapolis Center
Thu 11:29:00 AM 40.6479 -82.5304 189° South  Level FlightAware Approximate
Thu 11:29:57 AM 40.6942 -82.5856 214° Southwest 97 112 6,000  Level Indianapolis Center
Thu 11:30:00 AM 40.6239 -82.5354 190° South  Level FlightAware Approximate
Thu 11:30:59 AM 40.6636 -82.5867 182° South 103 119 5,900  Level Indianapolis Center
Thu 11:31:00 AM 40.5998 -82.5408 190° South  Level FlightAware Approximate
Thu 11:32:00 AM 40.6344 -82.5883 182° South 105 121 6,000  Level Indianapolis Center
Thu 11:33:02 AM 40.6064 -82.5889 181° South 101 116 6,000  Level Indianapolis Center
Thu 11:34:04 AM 40.5781 -82.5919 185° South 101 116 6,000 -48 Level Indianapolis Center
Thu 11:35:06 AM 40.5494 -82.5875 173° South 102 117 5,900  Descending Indianapolis Center
Thu 11:36:08 AM 40.5186 -82.5892 182° South 99 114 6,000 90 Climbing Indianapolis Center
Thu 11:37:19 AM 40.4881 -82.5933 186° South 91 105 6,100 48 Climbing Indianapolis Center
Thu 11:38:12 AM 40.4661 -82.6042 201° Southwest 98 113 6,100 -53 Level Indianapolis Center
Thu 11:39:13 AM 40.4397 -82.6247 211° Southwest 105 121 6,000 -49 Descending Indianapolis Center
Thu 11:40:15 AM 40.4164 -82.6306 191° South 100 115 6,000  Level Indianapolis Center
Thu 11:41:22 AM 40.3822 -82.6444 197° South 102 117 6,000  Level Indianapolis Center
Thu 11:42:19 AM 40.3575 -82.6475 185° South 102 117 6,000  Level Indianapolis Center
Thu 11:43:21 AM 40.3300 -82.6617 201° Southwest 104 120 6,000  Level Indianapolis Center
Thu 11:44:23 AM 40.3019 -82.6692 192° South 102 117 6,000  Level Indianapolis Center
Thu 11:45:25 AM 40.2733 -82.6783 194° South 105 121 6,000 48 Level Indianapolis Center
Thu 11:46:27 AM 40.2456 -82.6978 208° Southwest 104 120 6,100  Climbing Indianapolis Center
Thu 11:47:28 AM 40.2169 -82.7094 197° South 104 120 6,000 -50 Descending Indianapolis Center
Thu 11:48:28 AM 40.1825 -82.7206 194° South 109 125 6,000 -50 Level Indianapolis Center
Thu 11:49:29 AM 40.1581 -82.7453 218° Southwest 117 135 5,900 -49 Descending Indianapolis Center
Thu 11:50:30 AM 40.1308 -82.7450 180° South 97 112 5,900 52 Level Indianapolis Center
Thu 11:51:25 AM 40.1056 -82.7447 180° South 95 109 6,000 103 Climbing Indianapolis Center
Thu 11:52:26 AM 40.0781 -82.7500 188° South 107 123 6,100 47 Climbing Indianapolis Center
Thu 11:53:33 AM 40.0475 -82.7711 208° Southwest 114 131 6,100 -50 Level Indianapolis Center
Thu 11:54:27 AM 40.0214 -82.7844 201° Southwest 110 127 6,000 -52 Descending Indianapolis Center
Thu 11:55:28 AM 39.9936 -82.7922 192° South 104 120 6,000 79 Level Indianapolis Center
Thu 11:55:43 AM 39.9856 -82.7928 183° South 107 123 6,100  Climbing Indianapolis Center
Thu 11:56:29 AM 39.9636 -82.8050 203° Southwest 106 122 6,000 -97 Descending Indianapolis Center
Thu 11:56:45 AM 39.9603 -82.8075 210° Southwest 105 121 6,000  Level Indianapolis Center
Thu 11:57:30 AM 39.9336 -82.8153 193° South 106 122 6,000  Level Indianapolis Center
Thu 11:57:46 AM 39.9297 -82.8156 183° South 108 124 6,000 98 Level Indianapolis Center
Thu 11:58:31 AM 39.9061 -82.8203 189° South 102 117 6,100 95 Climbing Indianapolis Center
Thu 11:58:49 AM 39.9011 -82.8211 187° South 106 122 6,100 -393 Level Indianapolis Center
Thu 11:59:32 AM 39.8786 -82.8228 183° South 97 112 5,700 -492 Descending Indianapolis Center
Thu 11:59:50 AM 39.8739 -82.8236 188° South 100 115 5,600 -900 Descending Indianapolis Center
Thu 12:00:32 PM 39.8553 -82.8283 191° South 87 100 4,800 -968 Descending Indianapolis Center
Thu 12:00:52 PM 39.8453 -82.8306 190° South 93 107 4,600 -689 Descending Indianapolis Center
Thu 12:01:33 PM 39.8297 -82.8336 189° South 91 105 4,100 -581 Descending Indianapolis Center
Thu 12:01:54 PM 39.8192 -82.8322 174° South 91 105 4,000 -98 Descending Indianapolis Center
Thu 12:02:34 PM 39.7981 -82.8381 192° South 108 124 4,000  Level Indianapolis Center
Thu 12:02:55 PM 39.7911 -82.8411 199° South 97 112 4,000  Level Indianapolis Center
Thu 12:03:35 PM 39.7717 -82.8569 212° Southwest 108 124 4,000  Level Indianapolis Center
Thu 12:03:57 PM 39.7636 -82.8606 199° South 105 121 4,000  Level Indianapolis Center
Thu 12:04:36 PM 39.7469 -82.8811 223° Southwest 112 129 4,000 97 Level Indianapolis Center
Thu 12:04:59 PM 39.7397 -82.8872 213° Southwest 109 125 4,100  Climbing Indianapolis Center
Thu 12:05:37 PM 39.7228 -82.9000 210° Southwest 105 121 4,000 -97 Descending Indianapolis Center
Thu 12:06:01 PM 39.7147 -82.9056 208° Southwest 106 122 4,000 -300 Level Indianapolis Center
Thu 12:06:37 PM 39.6947 -82.9106 191° South 106 122 3,700 -677 Descending Indianapolis Center
Thu 12:07:03 PM 39.6850 -82.9136 194° South 106 122 3,300 -1,082 Descending Indianapolis Center
Thu 12:07:38 PM 39.6656 -82.9100 172° South 102 117 2,600 -968 Descending Indianapolis Center
Thu 12:08:05 PM 39.6586 -82.9086 171° South 100 115 2,300 -205 Descending Indianapolis Center
Thu 12:09:06 PM 39.6381 -82.9333 223° Southwest 103 119 2,300  Level Indianapolis Center

Login

Don't have an account? Register now (free) for customized features, flight alerts, and more!